createdAt,value
2022-10-05T00:02:43.970Z,6.45
2022-10-05T00:07:53.602Z,6.05
2022-10-05T00:13:30.084Z,4.30
2022-10-05T00:19:10.686Z,7.93
2022-10-05T00:24:42.310Z,5.55
2022-10-05T00:36:00.867Z,7.95
2022-10-05T00:41:17.762Z,7.05
2022-10-05T00:46:30.407Z,4.97
2022-10-05T00:51:41.562Z,5.78
2022-10-05T00:57:11.140Z,7.00
2022-10-05T01:02:23.191Z,6.70
2022-10-05T01:07:40.268Z,5.65
2022-10-05T01:12:53.340Z,5.93
2022-10-05T01:18:06.612Z,5.57
2022-10-05T01:23:40.122Z,7.78
2022-10-05T01:28:55.863Z,6.50
2022-10-05T01:34:11.658Z,6.57
2022-10-05T01:39:23.176Z,6.78
2022-10-05T01:44:39.466Z,6.88
2022-10-05T01:49:53.691Z,7.68
2022-10-05T01:55:15.130Z,7.60
2022-10-05T02:00:26.210Z,8.82
2022-10-05T02:05:41.750Z,5.97
2022-10-05T02:11:02.724Z,8.77
2022-10-05T02:16:20.490Z,10.18
2022-10-05T02:21:26.167Z,10.20
2022-10-05T02:26:37.265Z,9.88
2022-10-05T02:31:58.860Z,6.22
2022-10-05T02:37:21.465Z,6.45
2022-10-05T02:42:32.163Z,6.60
2022-10-05T02:47:48.659Z,11.73
2022-10-05T02:53:00.220Z,7.40
2022-10-05T02:58:15.331Z,7.03
2022-10-05T03:03:32.292Z,5.97
2022-10-05T03:08:45.612Z,6.50
2022-10-05T03:14:02.133Z,6.32
2022-10-05T03:19:21.338Z,9.25
2022-10-05T03:24:58.801Z,11.18
2022-10-05T03:30:06.840Z,7.85
2022-10-05T03:35:16.973Z,7.03
2022-10-05T03:40:35.548Z,7.70
2022-10-05T03:45:43.964Z,5.90
2022-10-05T03:50:58.625Z,5.57
2022-10-05T03:56:08.614Z,8.70
2022-10-05T04:01:20.798Z,8.48
2022-10-05T04:06:28.957Z,12.02
2022-10-05T04:11:40.054Z,7.68
2022-10-05T04:16:49.877Z,8.43
2022-10-05T04:22:02.075Z,9.90
2022-10-05T04:27:14.160Z,8.50
2022-10-05T04:32:33.519Z,11.48
2022-10-05T04:37:50.440Z,9.20
2022-10-05T04:43:07.499Z,10.27
2022-10-05T04:48:27.730Z,8.85
2022-10-05T04:53:38.750Z,10.25
2022-10-05T04:59:10.933Z,9.70
2022-10-05T05:04:37.790Z,11.68
2022-10-05T05:10:13.417Z,9.88
2022-10-05T05:15:29.718Z,8.45
2022-10-05T05:20:48.026Z,9.68
2022-10-05T05:26:06.296Z,9.48
2022-10-05T05:31:20.763Z,11.27
2022-10-05T05:36:53.220Z,15.90
2022-10-05T05:42:29.470Z,13.30
2022-10-05T05:47:40.193Z,10.88
2022-10-05T05:52:47.874Z,13.38
2022-10-05T05:57:58.668Z,9.98
2022-10-05T06:03:11.058Z,11.05
2022-10-05T06:09:01.746Z,10.93
2022-10-05T06:14:12.424Z,13.23
2022-10-05T06:19:18.282Z,11.68
2022-10-05T06:24:26.541Z,15.15
2022-10-05T06:29:41.657Z,12.75
2022-10-05T06:34:57.010Z,16.80
2022-10-05T06:40:16.622Z,13.90
2022-10-05T06:45:27.783Z,12.73
2022-10-05T06:50:38.020Z,14.13
2022-10-05T06:56:10.843Z,15.80
2022-10-05T07:01:28.108Z,10.95
2022-10-05T07:06:53.794Z,17.05
2022-10-05T07:12:18.908Z,13.25
2022-10-05T07:17:32.830Z,15.32
2022-10-05T07:22:56.403Z,16.73
2022-10-05T07:28:04.067Z,12.02
2022-10-05T07:33:13.149Z,18.58
2022-10-05T07:38:22.254Z,10.88
2022-10-05T07:44:00.502Z,18.92
2022-10-05T07:49:03.912Z,15.13
2022-10-05T07:54:17.847Z,14.15
2022-10-05T07:59:31.592Z,11.73
2022-10-05T08:04:42.311Z,7.57
2022-10-05T08:09:51.654Z,12.30
2022-10-05T08:14:58.061Z,14.05
2022-10-05T08:20:08.447Z,8.60
2022-10-05T08:25:20.429Z,8.40
2022-10-05T08:30:22.561Z,10.45
2022-10-05T08:35:34.086Z,11.02
2022-10-05T08:41:16.751Z,6.85
2022-10-05T08:47:00.298Z,6.90
2022-10-05T08:52:29.244Z,6.55
2022-10-05T08:58:03.432Z,5.65
2022-10-05T09:03:34.661Z,5.47
2022-10-05T09:09:18.291Z,8.85
2022-10-05T09:14:35.667Z,7.93
2022-10-05T09:20:00.989Z,8.05
2022-10-05T09:25:23.489Z,9.18
2022-10-05T09:30:57.703Z,8.20
2022-10-05T09:36:52.712Z,7.80
2022-10-05T09:42:28.856Z,7.05
2022-10-05T09:47:53.762Z,5.13
2022-10-05T09:53:16.700Z,8.07
2022-10-05T09:58:58.604Z,6.95
2022-10-05T10:04:40.134Z,7.63
2022-10-05T10:09:53.913Z,8.48
2022-10-05T10:15:32.432Z,7.95
2022-10-05T10:20:56.172Z,8.48
2022-10-05T10:26:36.117Z,6.85
2022-10-05T10:32:01.702Z,10.35
2022-10-05T10:37:37.232Z,5.80
2022-10-05T10:42:50.812Z,13.77
2022-10-05T10:48:00.337Z,8.32
2022-10-05T10:53:15.468Z,6.82
2022-10-05T10:58:54.407Z,4.90
2022-10-05T11:04:32.921Z,6.80
2022-10-05T11:10:13.974Z,7.75
2022-10-05T11:15:46.855Z,6.80
2022-10-05T11:21:23.682Z,7.93
2022-10-05T11:26:49.208Z,6.47
2022-10-05T11:32:36.601Z,10.15
2022-10-05T11:37:54.650Z,6.75
2022-10-05T11:49:45.452Z,6.95
2022-10-05T11:55:57.366Z,9.10
2022-10-05T12:02:08.678Z,5.30
2022-10-05T12:08:16.005Z,4.32
2022-10-05T12:13:52.198Z,6.82
2022-10-05T12:26:05.090Z,7.53
2022-10-05T12:31:56.854Z,6.22
2022-10-05T12:37:21.727Z,6.32
2022-10-05T12:43:05.972Z,7.28
2022-10-05T12:49:08.859Z,6.03
2022-10-05T12:54:25.594Z,8.60
2022-10-05T12:59:44.346Z,4.88
2022-10-05T13:04:54.490Z,7.43
2022-10-05T13:10:12.072Z,7.53
2022-10-05T13:15:25.649Z,7.32
2022-10-05T13:20:35.594Z,7.90
2022-10-05T13:25:43.975Z,5.80
2022-10-05T13:30:58.951Z,6.35
2022-10-05T13:36:12.541Z,6.18
2022-10-05T13:41:27.852Z,7.68
2022-10-05T13:46:39.625Z,9.23
2022-10-05T13:51:48.413Z,8.13
2022-10-05T13:56:56.701Z,6.10
2022-10-05T14:02:06.983Z,7.30
2022-10-05T14:13:14.297Z,6.78
2022-10-05T14:19:20.131Z,7.68
2022-10-05T14:24:43.568Z,8.80
2022-10-05T14:30:02.054Z,6.32
2022-10-05T14:35:27.798Z,8.90
2022-10-05T14:40:39.241Z,6.07
2022-10-05T14:45:58.535Z,7.82
2022-10-05T14:51:07.723Z,8.68
2022-10-05T14:56:39.074Z,8.23
2022-10-05T15:01:48.934Z,7.72
2022-10-05T15:07:09.460Z,8.35
2022-10-05T15:12:15.745Z,7.30
2022-10-05T15:17:20.388Z,4.15
2022-10-05T15:22:43.680Z,7.57
2022-10-05T15:28:04.118Z,5.55
2022-10-05T15:39:27.468Z,7.43
2022-10-05T15:44:48.428Z,6.82
2022-10-05T15:50:06.572Z,7.72
2022-10-05T15:55:48.406Z,6.28
2022-10-05T16:01:19.799Z,6.07
2022-10-05T16:07:03.032Z,6.10
2022-10-05T16:12:22.659Z,8.43
2022-10-05T16:17:43.530Z,6.25
2022-10-05T16:22:52.764Z,7.63
2022-10-05T16:28:14.483Z,7.18
2022-10-05T16:33:23.701Z,8.07
2022-10-05T16:38:44.411Z,8.02
2022-10-05T16:43:56.341Z,8.73
2022-10-05T16:49:08.572Z,6.70
2022-10-05T16:54:23.237Z,10.77
2022-10-05T17:00:01.177Z,8.80
2022-10-05T17:05:20.260Z,8.48
2022-10-05T17:10:44.875Z,7.40
2022-10-05T17:16:04.401Z,8.23
2022-10-05T17:21:18.581Z,7.68
2022-10-05T17:26:56.440Z,10.27
2022-10-05T17:32:13.704Z,9.57
2022-10-05T17:37:37.002Z,8.52
2022-10-05T17:43:01.512Z,6.43
2022-10-05T17:48:11.828Z,10.50
2022-10-05T17:53:39.518Z,8.45
2022-10-05T17:59:08.390Z,8.82
2022-10-05T18:04:39.945Z,10.15
2022-10-05T18:10:03.327Z,9.15
2022-10-05T18:15:26.787Z,7.03
2022-10-05T18:20:51.078Z,9.00
2022-10-05T18:26:25.139Z,8.98
2022-10-05T18:37:36.624Z,7.88
2022-10-05T18:43:20.514Z,8.93
2022-10-05T18:49:00.376Z,9.27
2022-10-05T18:54:35.803Z,7.90
2022-10-05T19:00:07.315Z,6.32
2022-10-05T19:05:59.054Z,10.20
2022-10-05T19:11:48.785Z,9.27
2022-10-05T19:17:45.858Z,8.73
2022-10-05T19:23:29.859Z,8.32
2022-10-05T19:29:20.721Z,8.25
2022-10-05T19:34:55.256Z,8.75
2022-10-05T19:40:17.912Z,8.85
2022-10-05T19:45:27.441Z,6.50
2022-10-05T19:51:10.672Z,6.45
2022-10-05T19:56:29.209Z,10.85
2022-10-05T20:13:33.275Z,9.00
2022-10-05T20:19:59.437Z,8.77
2022-10-05T20:37:20.079Z,7.78
2022-10-05T20:48:47.568Z,8.95
2022-10-05T20:54:09.811Z,8.73
2022-10-05T20:59:43.671Z,9.70
2022-10-05T21:05:08.299Z,8.60
2022-10-05T21:10:30.727Z,8.13
2022-10-05T21:15:54.583Z,10.93
2022-10-05T21:21:21.872Z,9.00
2022-10-05T21:26:42.057Z,10.15
2022-10-05T21:32:18.794Z,9.45
2022-10-05T21:43:21.158Z,10.60
2022-10-05T21:49:14.130Z,11.88
2022-10-05T21:54:57.338Z,11.80
2022-10-05T22:00:10.686Z,12.70
2022-10-05T22:05:46.330Z,7.70
2022-10-05T22:11:10.369Z,8.20
2022-10-05T22:16:43.108Z,13.73
2022-10-05T22:22:12.947Z,9.50
2022-10-05T22:33:32.167Z,7.95
2022-10-05T22:39:21.162Z,9.35
2022-10-05T22:50:24.594Z,8.77
2022-10-05T22:55:54.884Z,8.95
2022-10-05T23:01:32.941Z,10.45
2022-10-05T23:06:59.460Z,9.50
2022-10-05T23:12:22.236Z,9.13
2022-10-05T23:17:46.163Z,9.43
2022-10-05T23:23:13.517Z,9.30
2022-10-05T23:28:49.481Z,12.45
2022-10-05T23:34:21.046Z,18.85
2022-10-05T23:39:34.146Z,10.30
2022-10-05T23:44:45.531Z,11.82
2022-10-05T23:49:47.750Z,16.35
2022-10-05T23:54:51.401Z,11.02
